Time;durP1;ratioP1;P1;durP2;ratioP2;P2;SDS_P1;SDS_P2;PMS_P1;PMS_P2;Temp;Humidity;BMP_temperature;BMP_pressure;BME280_temperature;BME280_humidity;BME280_pressure;Samples;Min_cycle;Max_cycle;Signal;HPM_P1;HPM_P2
2022/08/12 00:44:04;;;;;;;;;;;21.40;42.20;;;;;;4929983;29;20021;-87
2022/08/12 00:46:37;;;;;;;;;;;21.30;42.60;;;;;;4936423;29;19926;-87
2022/08/12 00:49:03;;;;;;;;;;;21.30;42.50;;;;;;4935339;29;20320;-87
2022/08/12 00:52:05;;;;;;;;;;;21.30;42.50;;;;;;4936197;29;19998;-86
2022/08/12 00:54:17;;;;;;;;;;;21.30;42.60;;;;;;4932467;29;19938;-87
2022/08/12 00:56:43;;;;;;;;;;;21.20;43.10;;;;;;4937092;29;19915;-87
2022/08/12 00:59:08;;;;;;;;;;;21.20;43.00;;;;;;4937597;29;19917;-87
2022/08/12 01:01:35;;;;;;;;;;;21.10;43.00;;;;;;4936436;29;20036;-86
2022/08/12 01:12:16;;;;;;;;;;;20.90;43.00;;;;;;4937781;29;19970;-87
2022/08/12 01:14:42;;;;;;;;;;;20.90;43.10;;;;;;4937769;29;19921;-87
2022/08/12 01:17:08;;;;;;;;;;;20.90;43.40;;;;;;4936266;29;19922;-87
2022/08/12 01:19:34;;;;;;;;;;;20.90;43.30;;;;;;4919885;29;19915;-85
2022/08/12 01:22:17;;;;;;;;;;;20.90;43.60;;;;;;4935932;29;19937;-86
2022/08/12 01:24:42;;;;;;;;;;;20.90;43.60;;;;;;4926502;29;19923;-87
2022/08/12 01:27:09;;;;;;;;;;;20.80;43.60;;;;;;4931230;29;19926;-86
2022/08/12 01:29:40;;;;;;;;;;;20.80;43.70;;;;;;4918527;29;19927;-86
2022/08/12 01:32:07;;;;;;;;;;;20.70;43.80;;;;;;4918614;29;19919;-86
2022/08/12 01:34:37;;;;;;;;;;;20.70;44.00;;;;;;4918304;29;19923;-87
2022/08/12 01:37:03;;;;;;;;;;;20.70;44.00;;;;;;4919250;29;19915;-87
2022/08/12 01:39:29;;;;;;;;;;;20.70;43.90;;;;;;4933739;29;19970;-88
2022/08/12 01:41:58;;;;;;;;;;;20.60;43.80;;;;;;4919448;29;19922;-88
2022/08/12 01:44:25;;;;;;;;;;;20.60;43.80;;;;;;4934014;29;19970;-87
2022/08/12 01:46:57;;;;;;;;;;;20.50;43.80;;;;;;4930433;29;19919;-87
2022/08/12 01:49:29;;;;;;;;;;;20.50;43.90;;;;;;4934651;29;19985;-87
2022/08/12 01:51:56;;;;;;;;;;;20.50;44.00;;;;;;4927480;29;19925;-88
2022/08/12 01:54:21;;;;;;;;;;;20.50;44.00;;;;;;4920770;29;20026;-88
2022/08/12 01:56:51;;;;;;;;;;;20.40;44.10;;;;;;4939095;29;20367;-88
2022/08/12 01:59:46;;;;;;;;;;;20.40;44.50;;;;;;4919860;29;19926;-88
2022/08/12 02:02:32;;;;;;;;;;;20.30;44.80;;;;;;4937030;29;19943;-88
2022/08/12 02:11:20;;;;;;;;;;;20.30;45.20;;;;;;4937579;29;19946;-88
2022/08/12 02:13:48;;;;;;;;;;;20.20;45.40;;;;;;4937051;29;20275;-86
2022/08/12 02:16:33;;;;;;;;;;;20.20;45.90;;;;;;4937317;29;19974;-87
2022/08/12 02:19:17;;;;;;;;;;;20.20;46.00;;;;;;4937376;29;19911;-88
2022/08/12 02:21:57;;;;;;;;;;;20.20;45.90;;;;;;4935010;29;20013;-85
2022/08/12 02:24:30;;;;;;;;;;;20.00;46.20;;;;;;4931831;29;20080;-86
2022/08/12 02:26:57;;;;;;;;;;;20.10;46.30;;;;;;4902922;29;19955;-86
2022/08/12 02:29:22;;;;;;;;;;;20.10;46.30;;;;;;4927440;29;19998;-86
2022/08/12 02:31:48;;;;;;;;;;;20.10;46.20;;;;;;4916161;29;19939;-85
2022/08/12 02:34:15;;;;;;;;;;;20.00;45.90;;;;;;4920824;29;19923;-85
2022/08/12 02:36:43;;;;;;;;;;;20.10;45.80;;;;;;4921295;29;19919;-86
2022/08/12 02:39:11;;;;;;;;;;;20.00;46.00;;;;;;4924225;29;19915;-85
2022/08/12 02:41:39;;;;;;;;;;;20.00;46.40;;;;;;4915079;29;19969;-86
2022/08/12 02:44:07;;;;;;;;;;;19.90;46.40;;;;;;4926417;29;19923;-86
2022/08/12 02:46:33;;;;;;;;;;;19.90;46.40;;;;;;4930667;29;20364;-86
2022/08/12 02:49:09;;;;;;;;;;;19.90;46.20;;;;;;4931753;29;19966;-86
2022/08/12 02:51:40;;;;;;;;;;;19.80;46.20;;;;;;4917406;29;19926;-86
2022/08/12 02:54:06;;;;;;;;;;;19.80;46.20;;;;;;4916933;29;19919;-86
2022/08/12 02:56:41;;;;;;;;;;;19.80;46.20;;;;;;4928796;29;19970;-87
2022/08/12 02:59:15;;;;;;;;;;;19.80;46.10;;;;;;4911478;29;20506;-86
2022/08/12 03:01:54;;;;;;;;;;;19.80;46.20;;;;;;4915640;29;19952;-86
2022/08/12 03:04:40;;;;;;;;;;;19.70;46.20;;;;;;4921212;29;20049;-86
2022/08/12 03:07:29;;;;;;;;;;;19.70;46.30;;;;;;4932617;29;20291;-86
2022/08/12 03:09:58;;;;;;;;;;;19.70;47.20;;;;;;4924092;29;19930;-86
2022/08/12 03:12:24;;;;;;;;;;;19.70;47.20;;;;;;4929233;29;19921;-87
2022/08/12 03:14:50;;;;;;;;;;;19.60;47.20;;;;;;4928103;29;19915;-86
2022/08/12 03:17:18;;;;;;;;;;;19.70;47.20;;;;;;4914179;29;19923;-87
2022/08/12 03:19:44;;;;;;;;;;;19.60;47.30;;;;;;4910398;29;20519;-86
2022/08/12 03:22:14;;;;;;;;;;;19.60;47.20;;;;;;4913798;29;20391;-86
2022/08/12 03:24:41;;;;;;;;;;;19.50;47.00;;;;;;4923951;29;19911;-86
2022/08/12 03:27:08;;;;;;;;;;;19.50;47.00;;;;;;4914747;29;20049;-86
2022/08/12 03:29:34;;;;;;;;;;;19.50;47.00;;;;;;4935932;29;19915;-86
2022/08/12 03:32:01;;;;;;;;;;;19.50;46.90;;;;;;4937649;29;19941;-86
2022/08/12 03:34:28;;;;;;;;;;;19.50;46.90;;;;;;4934863;29;19962;-86
2022/08/12 03:36:57;;;;;;;;;;;19.40;46.90;;;;;;4938043;29;20455;-86
2022/08/12 03:39:39;;;;;;;;;;;19.50;47.00;;;;;;4937987;29;19914;-86
2022/08/12 03:42:11;;;;;;;;;;;19.40;47.00;;;;;;4915250;29;20014;-86
2022/08/12 04:01:11;;;;;;;;;;;19.30;48.80;;;;;;4933739;29;20040;-86
2022/08/12 04:03:52;;;;;;;;;;;19.20;49.10;;;;;;4938785;29;19968;-86
2022/08/12 04:06:22;;;;;;;;;;;19.20;49.10;;;;;;4938721;29;19925;-86
2022/08/12 04:08:52;;;;;;;;;;;19.20;49.10;;;;;;4938710;29;19954;-86
2022/08/12 04:14:10;;;;;;;;;;;19.20;48.80;;;;;;4938897;29;19985;-88
2022/08/12 04:16:36;;;;;;;;;;;19.20;49.20;;;;;;4920695;29;20233;-87
2022/08/12 04:19:02;;;;;;;;;;;19.20;49.30;;;;;;4905555;29;19915;-86
2022/08/12 04:21:27;;;;;;;;;;;19.30;49.40;;;;;;4932085;29;19914;-86
2022/08/12 04:23:54;;;;;;;;;;;19.40;49.60;;;;;;4929390;29;19951;-87
2022/08/12 04:26:19;;;;;;;;;;;19.50;49.80;;;;;;4929964;29;20011;-86
2022/08/12 04:28:45;;;;;;;;;;;19.70;49.90;;;;;;4931839;29;20002;-86
2022/08/12 04:31:13;;;;;;;;;;;19.80;50.10;;;;;;4930605;29;19957;-86
2022/08/12 04:33:41;;;;;;;;;;;20.00;50.20;;;;;;4926311;29;19959;-87
2022/08/12 04:36:07;;;;;;;;;;;20.20;50.20;;;;;;4915258;29;19966;-86
2022/08/12 04:38:32;;;;;;;;;;;20.40;50.30;;;;;;4914260;29;19915;-86
2022/08/12 04:41:09;;;;;;;;;;;20.70;50.20;;;;;;4926972;29;19911;-86
2022/08/12 04:43:37;;;;;;;;;;;21.00;50.10;;;;;;4917066;29;19923;-86
2022/08/12 04:46:02;;;;;;;;;;;21.30;49.90;;;;;;4923303;29;19911;-87
2022/08/12 04:48:28;;;;;;;;;;;21.60;49.70;;;;;;4936520;29;19919;-86
2022/08/12 04:50:53;;;;;;;;;;;21.90;49.50;;;;;;4935279;29;20383;-87
2022/08/12 04:53:19;;;;;;;;;;;22.30;49.20;;;;;;4936779;29;19918;-87
2022/08/12 04:55:45;;;;;;;;;;;22.70;49.00;;;;;;4919976;29;19923;-87
2022/08/12 04:58:11;;;;;;;;;;;23.00;48.80;;;;;;4936035;29;19918;-87
2022/08/12 05:00:37;;;;;;;;;;;23.40;48.60;;;;;;4935637;29;19915;-87
2022/08/12 05:03:03;;;;;;;;;;;23.80;48.20;;;;;;4935068;29;19918;-87
2022/08/12 05:05:30;;;;;;;;;;;24.30;47.60;;;;;;4936753;29;20279;-87
2022/08/12 05:07:56;;;;;;;;;;;24.70;47.10;;;;;;4936788;29;19929;-86
2022/08/12 05:10:22;;;;;;;;;;;25.20;46.60;;;;;;4918996;29;19919;-86
2022/08/12 05:12:50;;;;;;;;;;;25.50;46.00;;;;;;4935508;29;19919;-86
2022/08/12 05:15:16;;;;;;;;;;;26.00;45.30;;;;;;4935672;29;19919;-86
2022/08/12 05:17:42;;;;;;;;;;;26.40;44.60;;;;;;4934438;29;19926;-86
2022/08/12 05:20:09;;;;;;;;;;;26.80;44.00;;;;;;4935371;29;19915;-86
2022/08/12 05:22:35;;;;;;;;;;;27.20;43.30;;;;;;4919075;29;19934;-86
2022/08/12 05:25:01;;;;;;;;;;;27.70;42.70;;;;;;4918303;29;20287;-87
2022/08/12 05:27:26;;;;;;;;;;;28.00;42.10;;;;;;4919194;29;19946;-83
2022/08/12 05:29:52;;;;;;;;;;;28.40;41.60;;;;;;4935510;29;19922;-86
2022/08/12 05:32:19;;;;;;;;;;;28.80;41.00;;;;;;4933391;29;20283;-84
2022/08/12 05:34:48;;;;;;;;;;;29.20;40.10;;;;;;4919003;29;19919;-84
2022/08/12 05:37:14;;;;;;;;;;;29.50;39.60;;;;;;4935167;29;19919;-85
2022/08/12 05:39:40;;;;;;;;;;;30.00;38.90;;;;;;4934798;29;19961;-85
2022/08/12 05:42:07;;;;;;;;;;;30.30;38.20;;;;;;4934591;29;19923;-85
2022/08/12 05:44:33;;;;;;;;;;;30.80;37.40;;;;;;4917774;29;19919;-85
2022/08/12 05:46:59;;;;;;;;;;;31.20;36.50;;;;;;4918108;29;19934;-85
2022/08/12 05:49:24;;;;;;;;;;;31.60;35.90;;;;;;4918342;29;19918;-85
2022/08/12 05:51:49;;;;;;;;;;;32.00;35.30;;;;;;4931639;29;19923;-85
2022/08/12 05:54:15;;;;;;;;;;;32.40;34.50;;;;;;4918527;29;19918;-85
2022/08/12 05:56:41;;;;;;;;;;;32.80;33.90;;;;;;4930342;29;19919;-85
2022/08/12 05:59:08;;;;;;;;;;;33.20;33.10;;;;;;4935159;29;20213;-85
2022/08/12 06:01:33;;;;;;;;;;;33.70;32.80;;;;;;4928260;29;19922;-85
2022/08/12 06:03:59;;;;;;;;;;;34.00;32.00;;;;;;4915214;29;19922;-85
2022/08/12 06:06:25;;;;;;;;;;;34.40;31.70;;;;;;4935227;29;19926;-85
2022/08/12 06:08:52;;;;;;;;;;;34.80;30.90;;;;;;4935962;29;19915;-86
2022/08/12 06:11:18;;;;;;;;;;;35.10;30.10;;;;;;4934102;29;19929;-84
2022/08/12 06:13:44;;;;;;;;;;;35.50;29.50;;;;;;4934218;29;19923;-84
2022/08/12 06:16:12;;;;;;;;;;;35.80;28.80;;;;;;4919980;29;19915;-84
2022/08/12 06:18:41;;;;;;;;;;;36.10;28.30;;;;;;4933872;29;20018;-84
2022/08/12 06:21:10;;;;;;;;;;;36.50;27.90;;;;;;4937868;29;20323;-84
2022/08/12 06:23:36;;;;;;;;;;;36.80;27.50;;;;;;4930219;29;20423;-84
2022/08/12 06:26:02;;;;;;;;;;;37.20;27.10;;;;;;4939612;29;20050;-84
2022/08/12 06:28:29;;;;;;;;;;;37.60;26.50;;;;;;4953468;29;20373;-84
2022/08/12 06:30:55;;;;;;;;;;;37.90;26.10;;;;;;4933569;29;19923;-84
2022/08/12 06:33:21;;;;;;;;;;;38.30;25.60;;;;;;4917485;29;21568;-84
2022/08/12 06:35:48;;;;;;;;;;;38.60;25.10;;;;;;4933509;29;19923;-83
2022/08/12 06:38:14;;;;;;;;;;;39.00;24.90;;;;;;4916670;29;19919;-84
2022/08/12 06:43:25;;;;;;;;;;;39.70;24.00;;;;;;4933753;29;19934;-84
2022/08/12 06:45:50;;;;;;;;;;;40.00;23.60;;;;;;4940344;29;19922;-84
2022/08/12 06:48:16;;;;;;;;;;;40.20;23.50;;;;;;4935552;29;19926;-84
2022/08/12 06:50:43;;;;;;;;;;;40.60;23.20;;;;;;4931988;29;19975;-85
2022/08/12 06:53:09;;;;;;;;;;;40.90;22.80;;;;;;4917088;29;20066;-84
2022/08/12 06:55:35;;;;;;;;;;;41.20;22.50;;;;;;4930153;29;19919;-84
2022/08/12 06:58:01;;;;;;;;;;;41.40;22.30;;;;;;4924828;29;19962;-84
2022/08/12 07:00:29;;;;;;;;;;;41.80;21.70;;;;;;4916973;29;20363;-84
2022/08/12 07:02:55;;;;;;;;;;;42.00;21.50;;;;;;4927969;29;20081;-84
2022/08/12 07:05:23;;;;;;;;;;;42.30;21.00;;;;;;4917123;29;19923;-83
2022/08/12 07:07:52;;;;;;;;;;;42.60;20.80;;;;;;4936932;28;19919;-84
2022/08/12 07:10:18;;;;;;;;;;;42.80;20.60;;;;;;4936537;29;19914;-83
2022/08/12 07:12:44;;;;;;;;;;;43.00;20.40;;;;;;4918309;29;19966;-84
2022/08/12 07:15:10;;;;;;;;;;;43.20;20.00;;;;;;4936131;29;19915;-84
2022/08/12 07:17:38;;;;;;;;;;;43.40;19.40;;;;;;4944728;29;19918;-85
2022/08/12 07:20:08;;;;;;;;;;;43.60;18.90;;;;;;4938705;29;19918;-85
2022/08/12 07:22:33;;;;;;;;;;;43.80;18.70;;;;;;4931710;29;20002;-85
2022/08/12 07:27:45;;;;;;;;;;;44.10;17.90;;;;;;4937094;29;19926;-85
2022/08/12 07:30:11;;;;;;;;;;;44.30;18.00;;;;;;4920462;29;20273;-84
2022/08/12 07:32:36;;;;;;;;;;;44.60;17.50;;;;;;4944278;29;20057;-84
2022/08/12 07:35:02;;;;;;;;;;;44.70;16.70;;;;;;4948187;29;19957;-86
2022/08/12 07:37:28;;;;;;;;;;;44.60;16.30;;;;;;4940520;29;19930;-84
2022/08/12 07:39:54;;;;;;;;;;;44.40;16.00;;;;;;4937424;29;19910;-86
2022/08/12 07:42:19;;;;;;;;;;;44.30;16.10;;;;;;4940538;29;19954;-86
2022/08/12 07:44:46;;;;;;;;;;;44.30;16.10;;;;;;4940599;29;19915;-86
2022/08/12 07:47:11;;;;;;;;;;;44.40;16.10;;;;;;4923179;29;19923;-86
2022/08/12 07:49:36;;;;;;;;;;;44.40;16.00;;;;;;4909506;29;20387;-87
2022/08/12 07:52:02;;;;;;;;;;;44.50;16.10;;;;;;4921177;29;19926;-87
2022/08/12 07:54:28;;;;;;;;;;;44.70;15.90;;;;;;4919910;29;19940;-86
2022/08/12 07:56:53;;;;;;;;;;;44.90;15.80;;;;;;4931647;29;19925;-85
2022/08/12 07:59:19;;;;;;;;;;;45.00;15.80;;;;;;4938071;29;19911;-85
2022/08/12 08:01:45;;;;;;;;;;;45.10;15.90;;;;;;4921622;29;19927;-87
2022/08/12 08:06:56;;;;;;;;;;;45.30;15.70;;;;;;4937068;29;19974;-86
2022/08/12 08:09:22;;;;;;;;;;;45.50;15.80;;;;;;4938405;29;20014;-85
2022/08/12 08:14:32;;;;;;;;;;;46.00;14.80;;;;;;4954004;29;19920;-85
2022/08/12 08:17:00;;;;;;;;;;;45.80;15.00;;;;;;4925617;29;20005;-86
2022/08/12 08:19:27;;;;;;;;;;;45.90;14.90;;;;;;4918988;29;19921;-86
2022/08/12 08:21:54;;;;;;;;;;;45.90;14.50;;;;;;4901760;29;19924;-86
2022/08/12 08:24:20;;;;;;;;;;;46.00;14.70;;;;;;4916815;29;20408;-85
2022/08/12 08:26:46;;;;;;;;;;;46.20;14.60;;;;;;4900642;29;19919;-88
2022/08/12 08:29:14;;;;;;;;;;;46.40;14.50;;;;;;4925821;29;19918;-85
2022/08/12 08:31:42;;;;;;;;;;;46.70;14.80;;;;;;4920734;29;20472;-85
2022/08/12 08:34:13;;;;;;;;;;;47.00;14.30;;;;;;4933179;29;19933;-85
2022/08/12 08:36:39;;;;;;;;;;;47.20;14.10;;;;;;4924563;29;20366;-85
2022/08/12 08:39:09;;;;;;;;;;;47.30;13.50;;;;;;4945058;29;19915;-85
2022/08/12 08:44:19;;;;;;;;;;;47.20;13.30;;;;;;4934168;29;19965;-87
2022/08/12 08:46:45;;;;;;;;;;;47.10;12.90;;;;;;4936670;29;19923;-86
2022/08/12 08:49:11;;;;;;;;;;;47.20;13.30;;;;;;4917916;29;19926;-85
2022/08/12 08:51:37;;;;;;;;;;;47.30;12.90;;;;;;4934717;29;20056;-87
2022/08/12 08:54:03;;;;;;;;;;;47.30;12.60;;;;;;4935682;29;20017;-87
2022/08/12 08:56:29;;;;;;;;;;;47.30;12.60;;;;;;4940124;29;20002;-87
2022/08/12 08:58:56;;;;;;;;;;;47.40;12.60;;;;;;4926238;29;20294;-85
2022/08/12 09:01:21;;;;;;;;;;;47.40;12.10;;;;;;4915044;29;19919;-86
2022/08/12 09:03:47;;;;;;;;;;;47.20;12.10;;;;;;4903709;29;19930;-88
2022/08/12 09:06:13;;;;;;;;;;;47.30;12.10;;;;;;4932974;29;19915;-87
2022/08/12 09:08:40;;;;;;;;;;;47.30;12.20;;;;;;4935607;29;19941;-86
2022/08/12 09:13:50;;;;;;;;;;;47.20;12.10;;;;;;4935041;29;19994;-87
2022/08/12 09:16:16;;;;;;;;;;;47.10;11.90;;;;;;4936733;29;19922;-88
2022/08/12 09:18:42;;;;;;;;;;;47.00;11.90;;;;;;4935701;29;19925;-87
2022/08/12 09:21:08;;;;;;;;;;;47.10;12.10;;;;;;4911616;29;20368;-87
2022/08/12 09:23:35;;;;;;;;;;;47.20;11.70;;;;;;4926835;29;20023;-86
2022/08/12 09:26:01;;;;;;;;;;;47.10;11.60;;;;;;4927553;29;19946;-86
2022/08/12 09:28:31;;;;;;;;;;;46.90;11.60;;;;;;4931296;29;20313;-85
2022/08/12 09:30:57;;;;;;;;;;;46.80;11.40;;;;;;4935827;29;19958;-86
2022/08/12 09:33:32;;;;;;;;;;;46.70;11.10;;;;;;4918902;29;19955;-85
2022/08/12 09:36:04;;;;;;;;;;;46.50;11.50;;;;;;4915480;29;19918;-86
2022/08/12 09:38:30;;;;;;;;;;;46.60;11.90;;;;;;4927963;29;19929;-86
2022/08/12 09:40:56;;;;;;;;;;;46.80;11.70;;;;;;4932934;29;19923;-85
2022/08/12 09:46:06;;;;;;;;;;;46.80;11.30;;;;;;4934348;29;19925;-86
2022/08/12 09:48:32;;;;;;;;;;;46.80;11.40;;;;;;4916817;29;19918;-85
2022/08/12 09:50:59;;;;;;;;;;;47.10;11.60;;;;;;4933927;29;19919;-86
2022/08/12 09:53:25;;;;;;;;;;;47.70;11.60;;;;;;4918631;29;19933;-85
2022/08/12 09:55:54;;;;;;;;;;;47.90;11.30;;;;;;4930825;29;20303;-85
2022/08/12 09:58:27;;;;;;;;;;;48.00;10.80;;;;;;4938078;29;19949;-86
2022/08/12 10:01:03;;;;;;;;;;;47.80;10.80;;;;;;4914887;29;19915;-85
2022/08/12 10:03:33;;;;;;;;;;;47.90;10.90;;;;;;4919374;29;19923;-86
2022/08/12 10:05:59;;;;;;;;;;;47.50;10.30;;;;;;4941219;29;19919;-86
2022/08/12 10:08:29;;;;;;;;;;;46.90;10.60;;;;;;4921996;29;19978;-85
2022/08/12 10:13:40;;;;;;;;;;;46.70;11.10;;;;;;4935309;29;20057;-85
2022/08/12 10:16:30;;;;;;;;;;;47.00;11.10;;;;;;4916984;29;19925;-87
2022/08/12 10:18:55;;;;;;;;;;;47.10;11.10;;;;;;4921625;29;19942;-87
2022/08/12 10:21:37;;;;;;;;;;;47.20;11.00;;;;;;4938428;29;20264;-86
2022/08/12 10:24:05;;;;;;;;;;;47.30;11.00;;;;;;4935988;29;20395;-85
2022/08/12 10:32:11;;;;;;;;;;;47.80;10.60;;;;;;4932713;29;19922;-86
2022/08/12 10:34:38;;;;;;;;;;;47.50;10.70;;;;;;4932380;29;19922;-87
2022/08/12 10:37:04;;;;;;;;;;;47.40;10.90;;;;;;4931528;29;19976;-86
2022/08/12 10:39:32;;;;;;;;;;;47.40;10.90;;;;;;4931626;29;19958;-86
2022/08/12 10:44:52;;;;;;;;;;;47.70;10.80;;;;;;4935560;29;19967;-86
2022/08/12 10:47:20;;;;;;;;;;;47.90;10.70;;;;;;4919192;29;19930;-88
2022/08/12 10:49:48;;;;;;;;;;;47.80;10.80;;;;;;4936257;29;19921;-86
2022/08/12 10:52:14;;;;;;;;;;;47.60;10.80;;;;;;4938198;29;19914;-87
2022/08/12 10:54:41;;;;;;;;;;;47.40;10.90;;;;;;4938698;29;19926;-87
2022/08/12 10:57:07;;;;;;;;;;;47.50;11.10;;;;;;4933642;29;19933;-87
2022/08/12 10:59:33;;;;;;;;;;;47.80;11.00;;;;;;4940556;29;21500;-86
2022/08/12 11:01:59;;;;;;;;;;;48.00;10.80;;;;;;4936634;29;19923;-86
2022/08/12 11:04:25;;;;;;;;;;;48.20;10.80;;;;;;4920699;29;19926;-87
2022/08/12 11:06:52;;;;;;;;;;;48.30;10.70;;;;;;4926513;29;19915;-85
2022/08/12 11:09:30;;;;;;;;;;;48.20;10.60;;;;;;4930549;29;19946;-86
2022/08/12 11:11:57;;;;;;;;;;;48.20;10.60;;;;;;4937417;29;19919;-85
2022/08/12 11:14:27;;;;;;;;;;;47.90;10.60;;;;;;4951237;29;20017;-85
2022/08/12 11:16:55;;;;;;;;;;;47.80;10.90;;;;;;4952484;29;19981;-86
2022/08/12 11:19:22;;;;;;;;;;;47.80;11.00;;;;;;4937889;29;19918;-86
2022/08/12 11:21:47;;;;;;;;;;;48.20;11.10;;;;;;4936525;29;19969;-85
2022/08/12 11:24:13;;;;;;;;;;;48.60;11.00;;;;;;4936375;29;19973;-86
2022/08/12 11:26:38;;;;;;;;;;;49.00;10.90;;;;;;4920336;29;19926;-85
2022/08/12 11:29:03;;;;;;;;;;;49.40;10.70;;;;;;4936149;29;19977;-86
2022/08/12 11:31:29;;;;;;;;;;;49.40;10.40;;;;;;4936900;29;19911;-86
2022/08/12 11:33:55;;;;;;;;;;;49.30;10.30;;;;;;4936272;29;19933;-85
2022/08/12 11:36:20;;;;;;;;;;;49.30;10.30;;;;;;4940741;29;20656;-86
2022/08/12 11:38:46;;;;;;;;;;;49.30;10.20;;;;;;4954036;29;19919;-85
2022/08/12 11:41:11;;;;;;;;;;;48.80;10.10;;;;;;4956315;29;19919;-86
2022/08/12 11:43:36;;;;;;;;;;;48.50;10.10;;;;;;4921199;29;19927;-85
2022/08/12 11:46:02;;;;;;;;;;;48.30;10.30;;;;;;4925076;29;19918;-85
2022/08/12 11:48:27;;;;;;;;;;;48.20;10.30;;;;;;4934733;29;19923;-85
2022/08/12 11:50:53;;;;;;;;;;;47.90;10.40;;;;;;4933784;29;20013;-85
2022/08/12 11:53:18;;;;;;;;;;;47.80;10.40;;;;;;4912394;29;19919;-88
2022/08/12 11:55:44;;;;;;;;;;;47.80;10.40;;;;;;4928376;29;19923;-85
2022/08/12 11:58:09;;;;;;;;;;;47.80;10.20;;;;;;4937427;29;19914;-85
2022/08/12 12:00:35;;;;;;;;;;;47.50;10.20;;;;;;4935068;29;19929;-89
2022/08/12 12:03:00;;;;;;;;;;;47.30;10.40;;;;;;4930263;29;19961;-86
2022/08/12 12:05:26;;;;;;;;;;;47.20;10.40;;;;;;4934540;29;19970;-87
2022/08/12 12:07:51;;;;;;;;;;;47.20;10.50;;;;;;4918221;29;20002;-87
2022/08/12 12:10:17;;;;;;;;;;;47.30;10.40;;;;;;4935433;29;20403;-88
2022/08/12 12:12:43;;;;;;;;;;;47.30;10.30;;;;;;4934887;29;20017;-88
2022/08/12 12:15:09;;;;;;;;;;;47.10;10.10;;;;;;4934516;29;19954;-86
2022/08/12 12:17:35;;;;;;;;;;;46.80;10.20;;;;;;4915694;29;19974;-85
2022/08/12 12:20:01;;;;;;;;;;;46.60;10.40;;;;;;4915643;29;19923;-87
2022/08/12 12:22:27;;;;;;;;;;;46.50;10.40;;;;;;4931922;29;19929;-89
2022/08/12 12:24:53;;;;;;;;;;;46.70;10.60;;;;;;4914627;29;19924;-88
2022/08/12 12:27:21;;;;;;;;;;;46.80;10.70;;;;;;4914664;29;19918;-87
2022/08/12 12:29:46;;;;;;;;;;;47.00;10.70;;;;;;4932986;29;19985;-86
2022/08/12 12:32:13;;;;;;;;;;;47.30;10.60;;;;;;4933363;29;19958;-86
2022/08/12 12:34:38;;;;;;;;;;;47.50;10.70;;;;;;4926291;29;19922;-86
2022/08/12 12:37:04;;;;;;;;;;;47.80;10.60;;;;;;4933293;29;19989;-86
2022/08/12 12:39:29;;;;;;;;;;;47.80;10.60;;;;;;4931539;29;19923;-86
2022/08/12 12:41:55;;;;;;;;;;;47.50;10.00;;;;;;4931115;29;19927;-85
2022/08/12 12:44:20;;;;;;;;;;;46.70;10.20;;;;;;4931154;29;20018;-85
2022/08/12 12:46:47;;;;;;;;;;;46.30;10.50;;;;;;4933719;29;19918;-85
2022/08/12 12:49:13;;;;;;;;;;;45.90;10.60;;;;;;4914647;29;20342;-83
2022/08/12 12:51:38;;;;;;;;;;;45.40;10.30;;;;;;4932450;29;19993;-85
2022/08/12 12:54:04;;;;;;;;;;;45.00;10.60;;;;;;4930939;29;19923;-85
2022/08/12 12:56:30;;;;;;;;;;;44.70;10.80;;;;;;4914743;29;19915;-85
2022/08/12 12:58:56;;;;;;;;;;;44.40;11.10;;;;;;4915213;29;20423;-85
2022/08/12 13:01:24;;;;;;;;;;;44.00;11.30;;;;;;4933433;29;19973;-86
2022/08/12 13:03:53;;;;;;;;;;;43.70;11.40;;;;;;4916380;29;19926;-85
2022/08/12 13:06:28;;;;;;;;;;;43.30;11.30;;;;;;4932861;29;19922;-86
2022/08/12 13:08:54;;;;;;;;;;;42.80;11.40;;;;;;4933818;29;20380;-86
2022/08/12 13:11:20;;;;;;;;;;;42.30;11.70;;;;;;4934396;29;19915;-84
2022/08/12 13:13:48;;;;;;;;;;;41.90;12.00;;;;;;4934047;29;19927;-86
2022/08/12 13:16:19;;;;;;;;;;;41.50;12.20;;;;;;4914758;29;19922;-85
2022/08/12 13:18:48;;;;;;;;;;;41.20;12.30;;;;;;4933434;29;19923;-86
2022/08/12 13:21:17;;;;;;;;;;;41.00;12.50;;;;;;4926482;29;19919;-85
2022/08/12 13:23:44;;;;;;;;;;;40.80;12.60;;;;;;4930411;29;20387;-85
2022/08/12 13:26:10;;;;;;;;;;;40.50;12.60;;;;;;4932221;29;19918;-86
2022/08/12 13:28:36;;;;;;;;;;;40.20;12.80;;;;;;4951584;29;19930;-85
2022/08/12 13:31:01;;;;;;;;;;;40.00;12.90;;;;;;4945824;29;19911;-85
2022/08/12 13:33:28;;;;;;;;;;;39.80;13.10;;;;;;4934941;29;19996;-86
2022/08/12 13:36:00;;;;;;;;;;;39.70;13.30;;;;;;4917466;29;19919;-86
2022/08/12 13:38:37;;;;;;;;;;;39.70;13.40;;;;;;4932924;29;20021;-86
2022/08/12 13:41:03;;;;;;;;;;;39.60;13.50;;;;;;4924137;29;19926;-85
2022/08/12 13:43:29;;;;;;;;;;;39.30;13.50;;;;;;4942023;29;19957;-87
2022/08/12 13:45:54;;;;;;;;;;;39.20;13.60;;;;;;4933670;29;19950;-85
2022/08/12 13:48:20;;;;;;;;;;;39.00;13.50;;;;;;4928904;29;19915;-85
2022/08/12 13:50:45;;;;;;;;;;;38.70;13.70;;;;;;4915251;29;19911;-85
2022/08/12 13:53:10;;;;;;;;;;;38.60;13.70;;;;;;4897857;29;19938;-84
2022/08/12 13:55:44;;;;;;;;;;;38.50;13.70;;;;;;4931536;29;19975;-85
2022/08/12 13:58:10;;;;;;;;;;;38.30;13.90;;;;;;4946158;29;20371;-85
2022/08/12 14:00:36;;;;;;;;;;;38.20;14.10;;;;;;4953060;29;20037;-86
2022/08/12 14:03:01;;;;;;;;;;;38.10;14.10;;;;;;4923977;29;20751;-86
2022/08/12 14:05:27;;;;;;;;;;;37.90;14.10;;;;;;4915735;29;19963;-85
2022/08/12 14:08:00;;;;;;;;;;;37.80;14.40;;;;;;4940878;29;19914;-85
2022/08/12 14:10:37;;;;;;;;;;;37.60;14.40;;;;;;4951018;29;20310;-85
2022/08/12 14:13:05;;;;;;;;;;;37.30;14.40;;;;;;4923945;29;19962;-86
2022/08/12 14:15:31;;;;;;;;;;;37.30;14.80;;;;;;4899297;29;20505;-85
2022/08/12 14:18:09;;;;;;;;;;;37.20;14.90;;;;;;4932666;29;19923;-84
2022/08/12 14:20:35;;;;;;;;;;;37.10;15.10;;;;;;4915905;29;20060;-86
2022/08/12 14:23:00;;;;;;;;;;;36.90;14.80;;;;;;4915833;29;20013;-85
2022/08/12 14:25:29;;;;;;;;;;;36.80;14.90;;;;;;4916151;29;19962;-86
2022/08/12 14:28:02;;;;;;;;;;;36.70;15.10;;;;;;4936878;29;19919;-86
2022/08/12 14:30:29;;;;;;;;;;;36.50;15.40;;;;;;4939144;29;20005;-84
2022/08/12 14:32:54;;;;;;;;;;;36.40;15.40;;;;;;4930347;29;20010;-86
2022/08/12 14:35:20;;;;;;;;;;;36.30;15.30;;;;;;4922705;29;19918;-86
2022/08/12 14:37:45;;;;;;;;;;;36.20;15.40;;;;;;4908401;29;20280;-85
2022/08/12 14:40:11;;;;;;;;;;;36.10;15.50;;;;;;4913131;29;19925;-87
2022/08/12 14:42:37;;;;;;;;;;;36.00;15.50;;;;;;4931969;29;19929;-86
2022/08/12 14:45:04;;;;;;;;;;;35.90;15.60;;;;;;4912374;29;19923;-85
2022/08/12 14:47:30;;;;;;;;;;;35.80;15.60;;;;;;4928297;29;19914;-85
2022/08/12 14:49:55;;;;;;;;;;;35.80;15.70;;;;;;4924066;29;20383;-85
2022/08/12 14:52:23;;;;;;;;;;;35.80;15.80;;;;;;4922804;29;20445;-85
2022/08/12 14:54:48;;;;;;;;;;;35.70;16.00;;;;;;4914425;29;19927;-85
2022/08/12 14:57:15;;;;;;;;;;;35.60;15.90;;;;;;4934733;29;20364;-85
2022/08/12 15:02:27;;;;;;;;;;;35.60;15.70;;;;;;4929795;29;19942;-86
2022/08/12 15:04:57;;;;;;;;;;;35.50;15.80;;;;;;4913277;29;20017;-85
2022/08/12 15:07:25;;;;;;;;;;;35.60;15.60;;;;;;4914175;29;19948;-85
2022/08/12 15:09:51;;;;;;;;;;;35.50;15.80;;;;;;4915122;29;19919;-85
2022/08/12 15:12:18;;;;;;;;;;;35.50;16.00;;;;;;4929035;29;20339;-86
2022/08/12 15:14:45;;;;;;;;;;;35.50;16.30;;;;;;4922298;29;19923;-85
2022/08/12 15:17:10;;;;;;;;;;;35.50;16.60;;;;;;4929506;29;19966;-85
2022/08/12 15:19:36;;;;;;;;;;;35.40;16.80;;;;;;4927739;29;19950;-85
2022/08/12 15:22:02;;;;;;;;;;;35.40;16.90;;;;;;4933029;29;19919;-85
2022/08/12 15:24:27;;;;;;;;;;;35.40;17.00;;;;;;4932862;29;19923;-85
2022/08/12 15:26:54;;;;;;;;;;;35.40;16.90;;;;;;4914446;29;20261;-85
2022/08/12 15:29:20;;;;;;;;;;;35.30;16.80;;;;;;4916458;29;19958;-87
2022/08/12 15:31:45;;;;;;;;;;;35.30;16.90;;;;;;4917948;29;20331;-85
2022/08/12 15:34:11;;;;;;;;;;;35.30;17.00;;;;;;4919269;29;20021;-85
2022/08/12 15:36:37;;;;;;;;;;;35.20;16.90;;;;;;4934578;29;19982;-85
2022/08/12 15:39:03;;;;;;;;;;;35.20;16.80;;;;;;4923148;29;20339;-85
2022/08/12 15:41:29;;;;;;;;;;;35.10;17.00;;;;;;4917751;29;20091;-85
2022/08/12 15:43:56;;;;;;;;;;;35.10;16.90;;;;;;4928969;29;19998;-84
2022/08/12 15:46:22;;;;;;;;;;;35.00;16.80;;;;;;4924275;29;19915;-85
2022/08/12 15:48:48;;;;;;;;;;;35.00;16.80;;;;;;4941626;29;19926;-85
2022/08/12 15:51:46;;;;;;;;;;;35.00;16.90;;;;;;4899765;29;20287;-85
2022/08/12 15:54:12;;;;;;;;;;;35.00;17.00;;;;;;4916864;29;19915;-86
2022/08/12 15:56:38;;;;;;;;;;;34.90;16.90;;;;;;4936849;29;19922;-85
2022/08/12 15:59:04;;;;;;;;;;;34.80;16.60;;;;;;4918497;29;19926;-85
2022/08/12 16:01:30;;;;;;;;;;;34.80;16.70;;;;;;4930248;29;19927;-85
2022/08/12 16:03:56;;;;;;;;;;;34.80;16.70;;;;;;4934110;29;19939;-84
2022/08/12 16:06:23;;;;;;;;;;;34.80;16.80;;;;;;4932035;29;19926;-83
2022/08/12 16:08:49;;;;;;;;;;;34.80;16.60;;;;;;4934836;29;20343;-84